createdAt,value
2023-04-07T00:00:53.506Z,101359.25
2023-04-07T00:05:56.305Z,101368.09
2023-04-07T00:10:59.320Z,101361.34
2023-04-07T00:16:03.422Z,101356.13
2023-04-07T00:21:06.440Z,101358.59
2023-04-07T00:26:09.433Z,101356.78
2023-04-07T00:31:13.893Z,101362.00
2023-04-07T00:36:16.982Z,101363.75
2023-04-07T00:41:19.958Z,101365.41
2023-04-07T00:46:24.577Z,101370.75
2023-04-07T00:51:27.970Z,101380.06
2023-04-07T00:56:31.044Z,101374.13
2023-04-07T01:01:42.207Z,101378.66
2023-04-07T01:06:49.741Z,101382.91
2023-04-07T01:12:01.345Z,101379.47
2023-04-07T01:17:08.281Z,101380.22
2023-04-07T01:22:14.394Z,101383.63
2023-04-07T01:27:23.183Z,101377.41
2023-04-07T01:32:28.084Z,101375.59
2023-04-07T01:37:31.215Z,101378.31
2023-04-07T01:42:34.440Z,101381.84
2023-04-07T01:47:39.292Z,101393.06
2023-04-07T01:52:42.526Z,101394.97
2023-04-07T01:57:45.583Z,101395.81
2023-04-07T02:03:00.898Z,101387.03
2023-04-07T02:08:06.266Z,101402.56
2023-04-07T02:13:14.751Z,101395.56
2023-04-07T02:18:20.036Z,101388.69
2023-04-07T02:23:22.865Z,101386.88
2023-04-07T02:28:25.653Z,101393.91
2023-04-07T02:33:29.797Z,101401.09
2023-04-07T02:38:33.073Z,101405.59
2023-04-07T02:43:35.817Z,101396.69
2023-04-07T02:48:39.935Z,101396.97
2023-04-07T02:53:42.709Z,101394.28
2023-04-07T02:58:46.641Z,101402.84
2023-04-07T03:03:51.223Z,101402.75
2023-04-07T03:08:59.991Z,101405.50
2023-04-07T03:14:02.936Z,101405.44
2023-04-07T03:19:08.974Z,101402.91
2023-04-07T03:24:16.304Z,101413.31
2023-04-07T03:29:19.284Z,101408.91
2023-04-07T03:34:23.642Z,101402.91
2023-04-07T03:39:26.791Z,101408.28
2023-04-07T03:44:34.154Z,101415.91
2023-04-07T03:49:38.570Z,101416.91
2023-04-07T03:54:42.710Z,101414.38
2023-04-07T03:59:46.152Z,101413.53
2023-04-07T04:04:50.559Z,101413.50
2023-04-07T04:09:54.464Z,101423.09
2023-04-07T04:14:57.624Z,101423.00
2023-04-07T04:20:01.957Z,101418.72
2023-04-07T04:25:16.287Z,101422.03
2023-04-07T04:30:23.509Z,101431.59
2023-04-07T04:35:41.227Z,101429.81
2023-04-07T04:40:47.806Z,101436.75
2023-04-07T04:45:53.812Z,101440.28
2023-04-07T04:51:01.819Z,101446.25
2023-04-07T04:56:07.165Z,101451.53
2023-04-07T05:01:15.677Z,101448.09
2023-04-07T05:06:28.445Z,101458.53
2023-04-07T05:11:34.752Z,101450.72
2023-04-07T05:16:37.765Z,101460.34
2023-04-07T05:21:44.086Z,101472.44
2023-04-07T05:26:47.978Z,101465.47
2023-04-07T05:31:50.865Z,101475.97
2023-04-07T05:36:57.594Z,101475.94
2023-04-07T05:42:02.261Z,101484.66
2023-04-07T05:47:08.878Z,101489.88
2023-04-07T05:52:14.430Z,101487.28
2023-04-07T05:57:20.604Z,101482.81
2023-04-07T06:02:25.198Z,101488.97
2023-04-07T06:07:30.416Z,101499.34
2023-04-07T06:12:33.385Z,101508.03
2023-04-07T06:17:36.585Z,101515.00
2023-04-07T06:22:40.919Z,101514.09
2023-04-07T06:27:43.833Z,101520.13
2023-04-07T06:32:47.168Z,101527.09
2023-04-07T06:37:51.394Z,101524.38
2023-04-07T06:42:54.794Z,101534.75
2023-04-07T06:48:07.728Z,101529.47
2023-04-07T06:53:12.712Z,101539.03
2023-04-07T06:58:15.692Z,101544.31
2023-04-07T07:03:18.731Z,101555.59
2023-04-07T07:08:23.498Z,101555.59
2023-04-07T07:13:28.255Z,101558.03
2023-04-07T07:18:31.996Z,101559.63
2023-04-07T07:23:36.258Z,101568.44
2023-04-07T07:28:39.410Z,101567.41
2023-04-07T07:33:44.316Z,101570.84
2023-04-07T07:38:51.221Z,101583.91
2023-04-07T07:43:54.099Z,101589.13
2023-04-07T07:48:57.204Z,101582.22
2023-04-07T07:54:02.125Z,101593.47
2023-04-07T07:59:06.375Z,101593.53
2023-04-07T08:04:09.310Z,101598.63
2023-04-07T08:09:13.516Z,101606.44
2023-04-07T08:14:16.525Z,101622.19
2023-04-07T08:19:19.362Z,101614.41
2023-04-07T08:24:23.566Z,101615.16
2023-04-07T08:29:26.418Z,101626.34
2023-04-07T08:34:29.264Z,101628.13
2023-04-07T08:39:34.028Z,101620.97
2023-04-07T08:44:38.244Z,101629.72
2023-04-07T08:49:42.348Z,101639.28
2023-04-07T08:54:46.592Z,101640.59
2023-04-07T08:59:51.423Z,101639.63
2023-04-07T09:04:54.294Z,101645.00
2023-04-07T09:09:58.450Z,101659.84
2023-04-07T09:15:01.742Z,101661.88
2023-04-07T09:20:05.701Z,101660.09
2023-04-07T09:25:17.472Z,101662.59
2023-04-07T09:30:20.779Z,101675.41
2023-04-07T09:35:24.673Z,101676.31
2023-04-07T09:40:29.008Z,101673.56
2023-04-07T09:45:36.163Z,101680.72
2023-04-07T09:50:45.762Z,101672.63
2023-04-07T09:55:51.225Z,101680.53
2023-04-07T10:00:54.360Z,101680.53
2023-04-07T10:05:57.227Z,101679.44
2023-04-07T10:11:02.936Z,101684.78
2023-04-07T10:16:08.501Z,101686.63
2023-04-07T10:21:15.196Z,101685.78
2023-04-07T10:26:21.443Z,101676.81
2023-04-07T10:31:24.412Z,101687.25
2023-04-07T10:36:28.939Z,101701.47
2023-04-07T10:41:37.465Z,101699.66
2023-04-07T10:47:05.730Z,101711.03
2023-04-07T10:52:24.371Z,101713.66
2023-04-07T10:57:29.142Z,101725.03
2023-04-07T11:02:36.025Z,101719.75
2023-04-07T11:08:02.574Z,101717.28
2023-04-07T11:13:08.458Z,101727.78
2023-04-07T11:18:17.434Z,101730.31
2023-04-07T11:23:21.529Z,101731.25
2023-04-07T11:28:25.865Z,101731.13
2023-04-07T11:33:29.660Z,101730.00
2023-04-07T11:38:37.890Z,101732.47
2023-04-07T11:43:42.871Z,101735.03
2023-04-07T11:48:47.257Z,101731.56
2023-04-07T11:53:56.791Z,101745.50
2023-04-07T11:59:02.675Z,101750.72
2023-04-07T12:04:05.921Z,101754.22
2023-04-07T12:09:09.779Z,101751.31
2023-04-07T12:14:14.019Z,101754.59
2023-04-07T12:19:17.068Z,101756.97
2023-04-07T12:24:19.912Z,101760.31
2023-04-07T12:29:24.250Z,101768.38
2023-04-07T12:34:27.250Z,101776.50
2023-04-07T12:39:30.108Z,101780.75
2023-04-07T12:44:34.346Z,101778.66
2023-04-07T12:49:37.285Z,101778.69
2023-04-07T12:54:40.248Z,101779.31
2023-04-07T12:59:44.842Z,101785.63
2023-04-07T13:04:47.821Z,101787.44
2023-04-07T13:09:50.815Z,101790.06
2023-04-07T13:15:00.203Z,101798.00
2023-04-07T13:20:04.857Z,101799.66
2023-04-07T13:25:08.688Z,101794.59
2023-04-07T13:30:14.281Z,101805.44
2023-04-07T13:35:17.829Z,101812.44
2023-04-07T13:40:20.977Z,101797.38
2023-04-07T13:45:25.231Z,101808.91
2023-04-07T13:50:29.043Z,101805.28
2023-04-07T13:55:32.034Z,101802.78
2023-04-07T14:00:38.387Z,101814.25
2023-04-07T14:05:41.349Z,101807.38
2023-04-07T14:10:44.322Z,101815.31
2023-04-07T14:15:49.457Z,101817.19
2023-04-07T14:20:52.428Z,101825.38
2023-04-07T14:25:55.761Z,101818.44
2023-04-07T14:31:00.128Z,101824.69
2023-04-07T14:36:03.111Z,101823.25
2023-04-07T14:41:10.131Z,101838.97
2023-04-07T14:46:15.467Z,101835.53
2023-04-07T14:51:18.442Z,101830.31
2023-04-07T14:56:22.629Z,101845.00
2023-04-07T15:01:27.153Z,101837.81
2023-04-07T15:06:30.132Z,101846.53
2023-04-07T15:11:33.836Z,101854.47
2023-04-07T15:16:38.244Z,101848.47
2023-04-07T15:21:41.381Z,101856.28
2023-04-07T15:26:44.287Z,101865.09
2023-04-07T15:31:48.656Z,101863.50
2023-04-07T15:36:51.627Z,101868.72
2023-04-07T15:41:54.464Z,101867.94
2023-04-07T15:46:58.759Z,101873.16
2023-04-07T15:52:02.143Z,101879.41
2023-04-07T15:57:05.284Z,101881.97
2023-04-07T16:02:10.402Z,101881.03
2023-04-07T16:07:14.729Z,101879.34
2023-04-07T16:12:18.469Z,101884.28
2023-04-07T16:17:22.665Z,101883.34
2023-04-07T16:22:26.022Z,101886.75
2023-04-07T16:27:28.940Z,101889.38
2023-04-07T16:32:33.412Z,101902.38
2023-04-07T16:37:36.246Z,101901.47
2023-04-07T16:42:39.169Z,101905.94
2023-04-07T16:47:44.628Z,101906.88
2023-04-07T16:52:47.976Z,101921.78
2023-04-07T16:57:51.574Z,101926.22
2023-04-07T17:02:56.132Z,101936.72
2023-04-07T17:07:59.100Z,101928.94
2023-04-07T17:13:01.933Z,101942.94
2023-04-07T17:18:06.284Z,101957.78
2023-04-07T17:23:10.374Z,101956.97
2023-04-07T17:28:13.606Z,101976.22
2023-04-07T17:33:17.867Z,101984.16
2023-04-07T17:38:20.903Z,101988.53
2023-04-07T17:43:23.790Z,101993.75
2023-04-07T17:48:28.138Z,101999.94
2023-04-07T17:53:31.252Z,102005.25
2023-04-07T17:58:34.336Z,102007.94
2023-04-07T18:03:38.983Z,102008.88
2023-04-07T18:08:41.954Z,102021.09
2023-04-07T18:13:44.813Z,102023.75
2023-04-07T18:18:49.374Z,102029.91
2023-04-07T18:23:52.229Z,102032.56
2023-04-07T18:28:55.136Z,102039.59
2023-04-07T18:33:59.281Z,102051.84
2023-04-07T18:39:02.117Z,102056.22
2023-04-07T18:44:05.016Z,102063.22
2023-04-07T18:49:10.233Z,102070.25
2023-04-07T18:54:13.343Z,102079.84
2023-04-07T18:59:16.202Z,102083.31
2023-04-07T19:04:20.914Z,102085.94
2023-04-07T19:09:23.719Z,102086.81
2023-04-07T19:14:26.496Z,102085.09
2023-04-07T19:19:31.494Z,102090.31
2023-04-07T19:24:34.843Z,102094.69
2023-04-07T19:29:37.635Z,102109.53
2023-04-07T19:34:41.860Z,102103.44
2023-04-07T19:39:52.210Z,102113.91
2023-04-07T19:45:04.853Z,102116.56
2023-04-07T19:50:11.287Z,102122.63
2023-04-07T19:55:14.566Z,102127.88
2023-04-07T20:00:18.701Z,102115.69
2023-04-07T20:05:26.223Z,102121.00
2023-04-07T20:10:29.022Z,102123.69
2023-04-07T20:15:32.003Z,102123.69
2023-04-07T20:20:37.754Z,102134.22
2023-04-07T20:25:40.777Z,102142.06
2023-04-07T20:30:43.592Z,102146.44
2023-04-07T20:35:47.871Z,102159.50
2023-04-07T20:40:50.710Z,102154.28
2023-04-07T20:45:53.599Z,102159.50
2023-04-07T20:50:57.770Z,102163.88
2023-04-07T20:56:00.608Z,102165.63
2023-04-07T21:01:03.415Z,102168.25
2023-04-07T21:06:07.620Z,102165.66
2023-04-07T21:11:10.483Z,102170.00
2023-04-07T21:16:13.452Z,102170.00
2023-04-07T21:21:17.593Z,102172.59
2023-04-07T21:26:20.840Z,102177.84
2023-04-07T21:31:24.559Z,102188.28
2023-04-07T21:36:28.832Z,102183.06
2023-04-07T21:41:31.675Z,102190.91
2023-04-07T21:46:34.766Z,102194.38
2023-04-07T21:51:38.976Z,102196.13
2023-04-07T21:56:42.641Z,102194.38
2023-04-07T22:01:46.946Z,102196.97
2023-04-07T22:06:51.542Z,102204.84
2023-04-07T22:11:54.404Z,102214.41
2023-04-07T22:16:57.221Z,102213.53
2023-04-07T22:22:01.257Z,102212.66
2023-04-07T22:27:04.441Z,102220.50
2023-04-07T22:32:07.367Z,102226.59
2023-04-07T22:37:11.522Z,102219.66
2023-04-07T22:42:14.527Z,102230.94
2023-04-07T22:47:17.361Z,102231.81
2023-04-07T22:52:21.400Z,102220.50
2023-04-07T22:57:24.136Z,102235.25
2023-04-07T23:02:26.999Z,102235.25
2023-04-07T23:07:31.431Z,102230.88
2023-04-07T23:12:34.258Z,102244.75
2023-04-07T23:17:37.074Z,102247.38
2023-04-07T23:22:41.286Z,102253.41
2023-04-07T23:27:44.127Z,102243.84
2023-04-07T23:32:47.260Z,102256.88
2023-04-07T23:37:51.448Z,102255.09
2023-04-07T23:42:54.228Z,102251.56
2023-04-07T23:47:57.036Z,102255.00
2023-04-07T23:53:01.753Z,102261.91
2023-04-07T23:58:04.553Z,102254.91
